Time;durP1;ratioP1;P1;durP2;ratioP2;P2;SDS_P1;SDS_P2;PMS_P1;PMS_P2;Temp;Humidity;BMP_temperature;BMP_pressure;BME280_temperature;BME280_humidity;BME280_pressure;Samples;Min_cycle;Max_cycle;Signal;HPM_P1;HPM_P2
2022/11/20 00:02:28;;;;;;;18.42;10.60;;;;;;;2.09;85.76;101806.47;4896703;28;20082;-62
2022/11/20 00:07:57;;;;;;;21.33;11.18;;;;;;;2.28;84.44;101796.97;4811464;28;20047;-62
2022/11/20 00:10:32;;;;;;;21.95;11.27;;;;;;;2.36;84.57;101795.56;4933950;28;20040;-63
2022/11/20 00:16:03;;;;;;;22.95;12.57;;;;;;;2.14;83.70;101794.66;4900444;28;20067;-64
2022/11/20 00:18:53;;;;;;;24.27;13.02;;;;;;;2.14;84.47;101783.47;4853290;28;20049;-64
2022/11/20 00:21:36;;;;;;;26.55;13.35;;;;;;;2.06;84.41;101775.41;4878897;28;20071;-63
2022/11/20 00:24:17;;;;;;;23.67;13.40;;;;;;;2.29;84.19;101793.56;4916521;28;20047;-63
2022/11/20 00:27:06;;;;;;;23.75;14.07;;;;;;;2.45;84.19;101795.97;4869701;28;20052;-64
2022/11/20 00:30:17;;;;;;;25.45;13.88;;;;;;;2.50;83.74;101778.97;4933490;28;20424;-63
2022/11/20 00:32:52;;;;;;;31.60;14.57;;;;;;;2.55;83.17;101792.06;4903847;28;20518;-63
2022/11/20 00:35:47;;;;;;;28.55;15.20;;;;;;;2.67;83.29;101786.50;4911900;28;20098;-63
2022/11/20 00:41:44;;;;;;;26.10;14.80;;;;;;;2.74;82.01;101783.34;4935980;27;20119;-63
2022/11/20 00:44:23;;;;;;;31.73;15.88;;;;;;;2.72;82.48;101791.06;4895087;28;20352;-64
2022/11/20 00:47:17;;;;;;;27.33;14.50;;;;;;;2.69;82.59;101774.53;4887936;28;20596;-65
2022/11/20 00:50:18;;;;;;;27.70;13.15;;;;;;;2.72;83.22;101779.81;4912085;28;20451;-64
2022/11/20 00:52:55;;;;;;;27.00;13.57;;;;;;;2.63;83.13;101775.19;4938150;28;20066;-64
2022/11/20 00:56:00;;;;;;;30.02;12.70;;;;;;;2.61;83.62;101775.94;4923844;28;20040;-63
2022/11/20 00:58:46;;;;;;;25.77;13.32;;;;;;;2.65;84.11;101767.53;4931407;28;20050;-63
2022/11/20 01:01:25;;;;;;;24.05;13.45;;;;;;;2.69;84.22;101774.53;4879243;28;20052;-63
2022/11/20 01:04:04;;;;;;;26.65;13.48;;;;;;;2.75;84.27;101765.34;4939198;28;20101;-63
2022/11/20 01:06:49;;;;;;;27.60;14.15;;;;;;;2.79;84.16;101767.22;4911542;28;20045;-63
2022/11/20 01:09:36;;;;;;;29.50;13.57;;;;;;;2.78;84.18;101760.31;4925336;28;20303;-63
2022/11/20 01:12:14;;;;;;;29.13;14.57;;;;;;;2.94;83.76;101766.06;4929563;28;20103;-63
2022/11/20 01:15:10;;;;;;;32.00;15.05;;;;;;;2.99;83.63;101754.19;4947586;28;20331;-63
2022/11/20 01:18:12;;;;;;;30.98;14.45;;;;;;;3.24;83.33;101756.00;4937109;28;20041;-64
2022/11/20 01:21:03;;;;;;;35.15;16.15;;;;;;;3.33;82.54;101751.19;4972124;28;20048;-64
2022/11/20 01:24:00;;;;;;;36.55;16.00;;;;;;;2.95;82.28;101655.09;4954595;28;20057;-63
2022/11/20 01:26:40;;;;;;;31.17;14.90;;;;;;;3.65;81.97;101738.56;4902893;28;20059;-63
2022/11/20 01:29:33;;;;;;;29.25;13.20;;;;;;;3.80;81.31;101733.94;4950635;28;20048;-64
2022/11/20 01:32:14;;;;;;;30.60;13.55;;;;;;;3.92;81.27;101737.75;4963668;28;20055;-63
2022/11/20 01:34:59;;;;;;;23.50;11.57;;;;;;;3.99;80.75;101726.78;4932558;28;20067;-64
2022/11/20 01:37:35;;;;;;;22.88;12.32;;;;;;;4.06;80.35;101723.59;4940336;28;20216;-66
2022/11/20 01:43:32;;;;;;;27.30;12.38;;;;;;;3.95;80.19;101670.66;4927094;28;20213;-67
2022/11/20 01:46:29;;;;;;;22.63;11.95;;;;;;;4.19;79.42;101712.81;4948326;28;20099;-67
2022/11/20 01:49:07;;;;;;;19.20;10.63;;;;;;;4.19;79.96;101692.13;4948042;28;20055;-67
2022/11/20 01:51:54;;;;;;;23.05;10.68;;;;;;;4.31;79.32;101697.69;4943418;28;20059;-67
2022/11/20 01:54:38;;;;;;;19.63;10.55;;;;;;;4.28;78.95;101697.59;4873795;28;20048;-67
2022/11/20 01:57:13;;;;;;;17.67;9.80;;;;;;;4.23;79.03;101690.53;4911796;28;20115;-67
2022/11/20 02:00:01;;;;;;;20.15;9.68;;;;;;;4.27;79.17;101675.16;4930120;28;20192;-67
2022/11/20 02:02:54;;;;;;;25.13;13.18;;;;;;;4.25;78.54;101666.47;4949841;28;20134;-68
2022/11/20 02:05:43;;;;;;;30.35;16.55;;;;;;;4.07;78.93;101619.31;4948945;28;20051;-67
2022/11/20 02:08:27;;;;;;;33.67;17.90;;;;;;;4.32;78.31;101642.53;4964921;28;20047;-67
2022/11/20 02:11:15;;;;;;;24.08;12.10;;;;;;;4.37;78.36;101645.28;4933256;28;20485;-66
2022/11/20 02:13:57;;;;;;;18.25;9.73;;;;;;;4.40;77.99;101649.66;4889470;28;20057;-67
2022/11/20 02:16:41;;;;;;;14.68;8.70;;;;;;;4.42;77.80;101647.97;4882950;28;20340;-67
2022/11/20 02:19:24;;;;;;;16.80;9.57;;;;;;;4.52;77.51;101608.63;4935453;28;20070;-67
2022/11/20 02:22:08;;;;;;;19.75;10.27;;;;;;;4.67;77.49;101619.44;4933013;28;20126;-66
2022/11/20 02:24:58;;;;;;;19.20;10.15;;;;;;;4.63;77.04;101612.41;4935112;28;20053;-66
2022/11/20 02:27:41;;;;;;;20.48;10.60;;;;;;;4.89;76.53;101614.84;4938617;28;20489;-65
2022/11/20 02:30:18;;;;;;;21.30;11.20;;;;;;;4.87;76.02;101616.53;4918237;28;20108;-65
2022/11/20 02:33:00;;;;;;;18.42;10.18;;;;;;;4.84;76.09;101611.25;4903537;28;20075;-66
2022/11/20 02:36:17;;;;;;;20.25;10.07;;;;;;;4.72;75.91;101581.59;4945413;28;20044;-64
2022/11/20 02:42:13;;;;;;;18.88;9.70;;;;;;;5.07;76.20;101576.53;4957910;28;20317;-63
2022/11/20 02:44:51;;;;;;;17.63;9.57;;;;;;;4.83;76.05;101527.50;4916451;28;20053;-63
2022/11/20 02:47:39;;;;;;;15.60;9.25;;;;;;;5.11;75.33;101565.38;4935834;28;20040;-64
2022/11/20 02:50:51;;;;;;;15.02;8.25;;;;;;;5.03;74.67;101564.31;4918118;28;20054;-63
2022/11/20 02:53:33;;;;;;;13.40;6.50;;;;;;;4.95;74.31;101556.34;4953395;28;20073;-63
2022/11/20 02:56:27;;;;;;;10.68;6.38;;;;;;;4.94;74.53;101556.28;4930006;28;20084;-63
2022/11/20 02:59:27;;;;;;;8.65;5.85;;;;;;;4.81;74.74;101549.03;4936229;28;20065;-63
2022/11/20 03:02:12;;;;;;;9.32;5.78;;;;;;;4.66;75.56;101555.50;4948136;28;20062;-64
2022/11/20 03:04:47;;;;;;;13.25;8.32;;;;;;;4.60;75.81;101547.59;4944068;28;20103;-62
2022/11/20 03:10:12;;;;;;;12.13;7.05;;;;;;;4.54;76.54;101535.34;4926334;28;20144;-64
2022/11/20 03:13:36;;;;;;;13.43;5.97;;;;;;;4.58;76.35;101541.50;4932064;28;20059;-63
2022/11/20 03:16:35;;;;;;;12.85;6.47;;;;;;;4.57;76.52;101534.56;4846063;28;20089;-64
2022/11/20 03:19:15;;;;;;;12.93;6.95;;;;;;;4.51;76.62;101516.25;4847484;28;20097;-65
2022/11/20 03:21:47;;;;;;;15.25;7.00;;;;;;;4.49;77.44;101515.34;4859044;28;20300;-64
2022/11/20 03:27:19;;;;;;;13.77;7.40;;;;;;;4.49;77.45;101502.38;4839913;28;20269;-65
2022/11/20 03:30:18;;;;;;;12.13;7.40;;;;;;;4.44;77.90;101502.28;4854308;28;20108;-64
2022/11/20 03:33:22;;;;;;;15.30;8.93;;;;;;;4.40;78.19;101494.38;4851848;28;20042;-63
2022/11/20 03:36:12;;;;;;;13.35;6.97;;;;;;;4.29;78.49;101487.19;4802194;28;20202;-64
2022/11/20 03:38:57;;;;;;;15.68;7.72;;;;;;;4.27;78.70;101485.41;4843511;28;20515;-65
2022/11/20 03:41:45;;;;;;;17.58;9.48;;;;;;;4.18;78.92;101478.22;4856552;28;20065;-64
2022/11/20 03:44:29;;;;;;;78.90;42.80;;;;;;;4.09;78.92;101458.16;4826637;28;20050;-61
2022/11/20 03:50:10;;;;;;;39.55;27.20;;;;;;;4.08;79.50;101481.38;4870556;28;20064;-64
2022/11/20 03:52:49;;;;;;;27.10;15.18;;;;;;;4.02;79.78;101476.00;4844144;28;20064;-64
2022/11/20 03:55:36;;;;;;;27.23;16.42;;;;;;;3.95;79.71;101484.44;4865996;28;20280;-65
2022/11/20 03:58:39;;;;;;;14.82;9.85;;;;;;;3.96;80.33;101476.72;4870361;28;20042;-65
2022/11/20 04:01:18;;;;;;;10.35;7.50;;;;;;;3.99;80.47;101452.66;4841500;28;20057;-64
2022/11/20 04:04:03;;;;;;;11.07;6.07;;;;;;;4.13;80.72;101453.94;4866856;28;20062;-64
2022/11/20 04:06:55;;;;;;;12.10;5.30;;;;;;;4.21;80.63;101457.63;4859745;28;20041;-66
2022/11/20 04:09:44;;;;;;;9.82;5.03;;;;;;;4.16;80.75;101474.72;4860071;28;20050;-64
2022/11/20 04:12:36;;;;;;;11.95;8.25;;;;;;;4.04;80.99;101464.00;4853970;28;20118;-65
2022/11/20 04:15:25;;;;;;;14.98;6.18;;;;;;;3.99;81.63;101455.25;4868416;28;20054;-63
2022/11/20 04:18:03;;;;;;;11.77;5.68;;;;;;;3.96;81.80;101447.41;4819819;28;20400;-67
2022/11/20 04:20:50;;;;;;;13.05;5.50;;;;;;;3.92;82.01;101448.13;4800254;28;20042;-66
2022/11/20 04:23:38;;;;;;;9.20;5.07;;;;;;;3.91;82.78;101446.38;4825526;28;20053;-66
2022/11/20 04:26:23;;;;;;;7.68;5.05;;;;;;;3.88;83.28;101436.81;4864868;28;20074;-65
2022/11/20 04:29:09;;;;;;;10.82;5.13;;;;;;;3.72;83.27;101432.91;4808562;28;20155;-67
2022/11/20 04:32:04;;;;;;;19.88;13.30;;;;;;;3.51;83.92;101398.66;4862036;28;20052;-67
2022/11/20 04:34:51;;;;;;;11.68;7.85;;;;;;;3.76;84.13;101437.31;4938350;27;20109;-67
2022/11/20 04:37:38;;;;;;;16.27;7.78;;;;;;;3.76;83.87;101437.31;4967741;27;20040;-65
2022/11/20 04:40:24;;;;;;;7.80;5.13;;;;;;;3.77;84.14;101426.19;4961009;27;20244;-66
2022/11/20 04:43:15;;;;;;;32.17;24.02;;;;;;;3.81;84.19;101419.38;4950185;28;20045;-65
2022/11/20 04:45:59;;;;;;;10.10;8.60;;;;;;;3.78;84.19;101420.16;4916474;28;20036;-71
2022/11/20 04:49:01;;;;;;;13.07;6.10;;;;;;;3.88;84.06;101410.97;4958746;27;20062;-66
2022/11/20 04:51:57;;;;;;;12.20;5.70;;;;;;;3.95;83.68;101417.22;4929024;28;20036;-67
2022/11/20 04:54:41;;;;;;;11.77;8.55;;;;;;;3.97;84.34;101418.09;4885904;28;20036;-70
2022/11/20 04:57:38;;;;;;;10.93;6.00;;;;;;;4.00;83.70;101425.97;4895733;28;20063;-66
2022/11/20 05:00:16;;;;;;;16.45;7.28;;;;;;;3.96;83.40;101418.94;4909449;28;20573;-66
2022/11/20 05:03:02;;;;;;;12.68;6.78;;;;;;;3.91;83.65;101420.53;4958433;27;20048;-68
2022/11/20 05:05:51;;;;;;;11.70;6.40;;;;;;;3.84;83.82;101419.47;4942804;27;20041;-71
2022/11/20 05:08:37;;;;;;;12.07;8.63;;;;;;;3.83;84.07;101417.72;4874424;28;20042;-70
2022/11/20 05:11:17;;;;;;;15.63;9.32;;;;;;;3.84;83.72;101415.19;4960245;27;20053;-71
2022/11/20 05:14:05;;;;;;;11.05;7.38;;;;;;;3.82;84.05;101422.03;4941285;27;20061;-70
2022/11/20 05:17:00;;;;;;;12.32;6.13;;;;;;;3.80;84.26;101418.50;4892016;28;20048;-71
2022/11/20 05:22:40;;;;;;;24.13;18.85;;;;;;;3.71;84.09;101420.81;4951977;27;20065;-69
2022/11/20 05:25:35;;;;;;;13.23;10.25;;;;;;;3.66;84.66;101419.78;4947235;28;20082;-72
2022/11/20 05:28:08;;;;;;;10.75;6.38;;;;;;;3.65;84.86;101418.06;4949745;28;20133;-69
2022/11/20 05:31:13;;;;;;;11.57;6.18;;;;;;;3.61;84.76;101426.53;4968124;27;20059;-71
2022/11/20 05:34:07;;;;;;;13.18;5.47;;;;;;;3.56;85.23;101412.59;4928964;28;20608;-68
2022/11/20 05:36:52;;;;;;;12.45;6.28;;;;;;;3.57;85.38;101414.34;4900540;28;20044;-70
2022/11/20 05:39:32;;;;;;;10.57;6.07;;;;;;;3.55;85.41;101421.19;4925556;28;20044;-69
2022/11/20 05:42:38;;;;;;;11.73;5.93;;;;;;;3.49;85.60;101420.97;4922587;28;20544;-68
2022/11/20 05:45:21;;;;;;;10.82;5.28;;;;;;;3.43;85.74;101416.50;4906610;28;20338;-69
2022/11/20 05:51:00;;;;;;;13.15;6.40;;;;;;;2.64;86.47;101296.06;4850174;28;20135;-71
2022/11/20 05:53:37;;;;;;;13.02;5.68;;;;;;;3.10;87.20;101391.38;4940870;28;20361;-69
2022/11/20 05:56:25;;;;;;;7.03;5.28;;;;;;;3.21;87.26;101400.31;4921081;28;20051;-70
2022/11/20 05:59:09;;;;;;;11.20;5.88;;;;;;;3.25;87.26;101403.91;4886437;28;20083;-69
2022/11/20 06:02:04;;;;;;;41.15;25.58;;;;;;;3.19;87.40;101401.09;4944188;28;20048;-72
2022/11/20 06:05:20;;;;;;;38.28;24.35;;;;;;;3.26;87.49;101413.38;4938887;28;20040;-71
2022/11/20 06:08:12;;;;;;;12.30;6.68;;;;;;;3.24;87.65;101412.44;4906359;28;20051;-69
2022/11/20 06:10:52;;;;;;;12.15;5.95;;;;;;;3.18;88.01;101409.69;4895016;28;20043;-67
2022/11/20 06:19:25;;;;;;;11.18;5.82;;;;;;;3.09;89.55;101399.06;4935438;28;20040;-69
2022/11/20 06:22:05;;;;;;;8.48;5.47;;;;;;;3.08;90.01;101392.16;4925769;28;20070;-67
2022/11/20 06:24:56;;;;;;;88.28;45.72;;;;;;;3.07;90.44;101390.38;4935905;28;20086;-69
2022/11/20 06:28:22;;;;;;;43.58;24.50;;;;;;;3.03;90.66;101385.13;4934305;28;20055;-69
2022/11/20 06:30:56;;;;;;;61.85;34.17;;;;;;;2.98;91.05;101386.69;4823760;28;20057;-69
2022/11/20 06:33:41;;;;;;;39.65;30.02;;;;;;;2.94;91.10;101389.97;4952336;28;20096;-69
2022/11/20 06:36:44;;;;;;;25.58;19.23;;;;;;;2.67;90.95;101342.63;4887376;28;20289;-69
2022/11/20 06:39:28;;;;;;;11.52;7.75;;;;;;;2.85;91.18;101394.00;4962161;28;20048;-68
2022/11/20 06:45:02;;;;;;;;;;;;;;;2.72;91.54;101388.41;4913546;28;20468;-71
2022/11/20 06:47:43;;;;;;;147.88;75.53;;;;;;;2.65;92.19;101393.31;4940060;28;19938;-72
2022/11/20 06:50:30;;;;;;;50.38;28.17;;;;;;;2.54;92.66;101387.78;4937007;28;20657;-70
2022/11/20 06:53:30;;;;;;;37.67;19.33;;;;;;;2.51;93.09;101388.53;4953614;28;21551;-72
2022/11/20 06:56:07;;;;;;;63.05;42.20;;;;;;;2.40;93.33;101374.41;4909849;28;20051;-69
2022/11/20 06:59:04;;;;;;;49.00;27.80;;;;;;;2.36;93.90;101380.28;4935777;28;20274;-70
2022/11/20 07:01:49;;;;;;;26.05;14.70;;;;;;;2.34;94.43;101379.34;4950760;28;20048;-72
2022/11/20 07:04:36;;;;;;;25.95;13.10;;;;;;;2.37;95.10;101374.28;4918602;28;20047;-71
2022/11/20 07:07:15;;;;;;;24.40;11.95;;;;;;;2.38;95.47;101368.31;4916434;28;20496;-70
2022/11/20 07:09:59;;;;;;;24.25;10.60;;;;;;;2.34;95.51;101354.41;4937407;28;20083;-70
2022/11/20 07:12:44;;;;;;;16.48;8.68;;;;;;;2.48;95.74;101362.66;4942606;28;20078;-70
2022/11/20 07:15:23;;;;;;;15.93;7.47;;;;;;;2.63;96.08;101356.25;4909542;28;20054;-69
2022/11/20 07:20:50;;;;;;;12.63;6.85;;;;;;;2.75;95.67;101341.19;4904991;28;20065;-70
2022/11/20 07:23:42;;;;;;;17.25;8.70;;;;;;;2.77;95.61;101349.81;4884593;28;20059;-69
2022/11/20 07:26:19;;;;;;;14.75;8.95;;;;;;;2.79;95.74;101343.00;4937216;28;20093;-72
2022/11/20 07:29:01;;;;;;;26.90;12.05;;;;;;;2.84;95.58;101346.63;4937401;28;20051;-70
2022/11/20 07:31:44;;;;;;;28.95;12.30;;;;;;;2.83;95.08;101349.16;4936876;28;20055;-74
2022/11/20 07:34:45;;;;;;;16.25;8.73;;;;;;;2.79;94.75;101361.09;4923658;28;20055;-69
2022/11/20 07:37:35;;;;;;;19.80;9.93;;;;;;;2.16;94.70;101253.22;4912145;28;20058;-69
2022/11/20 07:40:36;;;;;;;19.75;9.85;;;;;;;2.68;94.87;101346.97;4897294;28;20047;-69
2022/11/20 07:43:46;;;;;;;16.85;11.65;;;;;;;2.59;94.70;101345.81;4868187;28;20056;-68
2022/11/20 07:46:36;;;;;;;45.58;15.88;;;;;;;2.59;95.41;101340.66;4860927;28;20045;-70
2022/11/20 07:49:16;;;;;;;35.10;16.48;;;;;;;2.59;95.25;101340.66;4844156;28;20049;-73
2022/11/20 07:52:06;;;;;;;26.90;11.93;;;;;;;2.53;95.43;101339.59;4854287;28;20073;-68
2022/11/20 07:55:04;;;;;;;25.60;10.38;;;;;;;2.50;95.76;101330.03;4845734;28;20056;-70
2022/11/20 07:58:12;;;;;;;30.70;14.25;;;;;;;2.54;96.81;101316.41;4867682;28;20054;-68
2022/11/20 08:01:16;;;;;;;43.38;21.38;;;;;;;2.65;97.12;101340.00;4856674;28;20689;-70
2022/11/20 08:06:51;;;;;;;19.00;10.07;;;;;;;2.74;97.13;101318.75;4843919;28;20058;-70
2022/11/20 08:09:36;;;;;;;16.23;7.82;;;;;;;2.78;96.86;101310.31;4860359;28;20329;-73
2022/11/20 08:15:55;;;;;;;14.70;8.73;;;;;;;2.76;96.67;101301.63;4798960;28;20103;-69
2022/11/20 08:18:36;;;;;;;12.80;7.82;;;;;;;2.80;97.05;101313.81;4802317;28;20050;-72
2022/11/20 08:21:14;;;;;;;16.73;8.10;;;;;;;2.77;96.74;101298.22;4866265;28;20048;-70
2022/11/20 08:24:02;;;;;;;21.02;10.02;;;;;;;2.80;96.39;101309.53;4879386;28;20084;-70
2022/11/20 08:26:35;;;;;;;29.40;14.75;;;;;;;2.70;96.01;101312.63;4826181;28;20050;-73
2022/11/20 08:29:48;;;;;;;27.73;13.15;;;;;;;2.55;96.04;101307.84;4877462;28;20061;-68
2022/11/20 08:32:32;;;;;;;36.92;17.55;;;;;;;2.50;96.24;101322.31;4878614;28;20093;-70
2022/11/20 08:35:13;;;;;;;27.92;15.52;;;;;;;2.49;96.77;101317.09;4876305;28;20050;-70
2022/11/20 08:38:04;;;;;;;21.63;12.93;;;;;;;2.49;97.16;101323.13;4878189;28;21335;-70
2022/11/20 08:44:17;;;;;;;37.70;14.23;;;;;;;2.47;97.75;101311.88;4877283;28;21739;-68
2022/11/20 08:47:07;;;;;;;23.58;9.70;;;;;;;2.59;98.72;101324.28;4887549;28;20075;-69
2022/11/20 08:49:52;;;;;;;17.75;9.65;;;;;;;2.64;99.28;101317.59;4854380;28;20079;-67
2022/11/20 08:53:04;;;;;;;21.85;8.88;;;;;;;2.68;99.19;101319.44;4868849;28;20159;-67
2022/11/20 08:56:09;;;;;;;18.48;9.27;;;;;;;2.72;100.00;101310.09;4870612;28;20571;-68
2022/11/20 08:58:52;;;;;;;19.55;7.50;;;;;;;2.75;100.00;101300.75;4907821;28;20050;-65
2022/11/20 09:02:14;;;;;;;21.23;10.63;;;;;;;2.77;100.00;101300.78;4850916;28;20045;-66
2022/11/20 09:04:58;;;;;;;18.02;8.50;;;;;;;2.77;100.00;101293.03;4882848;28;20062;-64
2022/11/20 09:11:13;;;;;;;21.15;14.00;;;;;;;2.71;100.00;101292.88;4859457;28;20056;-65
2022/11/20 09:14:06;;;;;;;18.20;10.52;;;;;;;2.65;100.00;101287.53;4887981;28;20100;-65
2022/11/20 09:16:58;;;;;;;32.20;18.15;;;;;;;2.57;100.00;101285.56;4884697;28;20045;-65
2022/11/20 09:19:46;;;;;;;20.15;11.38;;;;;;;2.55;100.00;101292.38;4901661;28;20055;-66
2022/11/20 09:22:37;;;;;;;21.35;11.20;;;;;;;2.51;100.00;101280.19;4866036;28;20062;-67
2022/11/20 09:25:32;;;;;;;32.70;19.77;;;;;;;2.49;100.00;101276.66;4838821;28;20060;-65
2022/11/20 09:28:41;;;;;;;23.52;9.85;;;;;;;2.44;100.00;101283.38;4835649;28;20062;-66
2022/11/20 09:32:07;;;;;;;16.73;7.32;;;;;;;2.50;100.00;101283.59;4894764;28;20068;-67
2022/11/20 09:34:50;;;;;;;20.73;9.73;;;;;;;2.54;100.00;101284.56;4876059;28;20049;-65
2022/11/20 09:37:27;;;;;;;15.90;8.20;;;;;;;2.59;100.00;101276.13;4873817;28;20437;-65
2022/11/20 09:40:05;;;;;;;19.80;9.25;;;;;;;2.62;100.00;101272.81;4892465;28;20048;-68
2022/11/20 09:42:57;;;;;;;14.13;6.78;;;;;;;2.56;100.00;101252.84;4850258;28;20497;-65
2022/11/20 09:45:47;;;;;;;12.07;6.32;;;;;;;2.66;100.00;101264.31;4861622;28;20046;-67
2022/11/20 09:48:56;;;;;;;14.27;6.97;;;;;;;2.45;100.00;101218.09;4868468;28;20302;-67
2022/11/20 09:52:02;;;;;;;21.63;8.75;;;;;;;2.78;100.00;101263.84;4891833;28;20072;-64
2022/11/20 09:54:43;;;;;;;19.80;9.65;;;;;;;2.80;100.00;101262.19;4881225;28;20050;-66
2022/11/20 09:57:29;;;;;;;;;;;;;;;2.85;100.00;101255.47;4827627;28;20101;-64
2022/11/20 10:00:23;;;;;;;19.08;8.13;;;;;;;2.85;100.00;101239.97;4837694;28;19994;-64
2022/11/20 10:03:05;;;;;;;14.48;6.68;;;;;;;3.03;100.00;101261.19;4879332;28;20102;-65
2022/11/20 10:09:01;;;;;;;14.93;7.22;;;;;;;3.10;100.00;101251.91;4870522;28;20065;-65
2022/11/20 10:12:17;;;;;;;15.98;6.95;;;;;;;3.18;100.00;101249.56;4853417;28;20118;-67
2022/11/20 10:15:34;;;;;;;13.98;7.00;;;;;;;3.23;100.00;101235.06;4829866;28;20047;-65
2022/11/20 10:18:39;;;;;;;17.10;7.10;;;;;;;3.21;100.00;101223.81;4875986;28;20060;-65
2022/11/20 10:22:08;;;;;;;14.73;7.00;;;;;;;3.35;100.00;101232.84;4850108;28;20122;-65
2022/11/20 10:25:29;;;;;;;19.10;9.60;;;;;;;3.41;100.00;101233.00;4906976;28;20089;-65
2022/11/20 10:28:31;;;;;;;15.30;7.60;;;;;;;3.39;100.00;101221.75;4876408;28;20032;-65
2022/11/20 10:31:22;;;;;;;;;;;;;;;3.45;100.00;101240.03;4819489;28;20122;-67
2022/11/20 10:34:12;;;;;;;17.15;6.93;;;;;;;3.29;100.00;101206.81;4851779;28;19934;-65
2022/11/20 10:37:09;;;;;;;20.17;7.32;;;;;;;3.45;100.00;101219.34;4886538;28;20049;-66
2022/11/20 10:40:00;;;;;;;20.42;7.80;;;;;;;3.43;100.00;101210.69;4861217;28;20054;-65
2022/11/20 10:42:52;;;;;;;16.20;7.30;;;;;;;3.48;99.90;101215.09;4825733;28;20052;-64
2022/11/20 10:46:03;;;;;;;21.42;8.05;;;;;;;3.39;99.83;101203.66;4868446;28;20125;-65
2022/11/20 10:48:53;;;;;;;13.30;6.95;;;;;;;3.39;100.00;101203.66;4888112;28;20060;-64
2022/11/20 10:51:40;;;;;;;15.15;7.05;;;;;;;3.51;100.00;101207.44;4839309;28;20051;-66
2022/11/20 10:54:29;;;;;;;14.60;6.82;;;;;;;3.57;100.00;101207.59;4889850;28;20084;-65
2022/11/20 10:57:26;;;;;;;16.10;6.80;;;;;;;3.51;100.00;101186.75;4843843;28;20045;-65
2022/11/20 11:00:24;;;;;;;18.13;6.90;;;;;;;3.59;99.92;101198.16;4860378;28;20073;-65
2022/11/20 11:03:03;;;;;;;19.77;7.10;;;;;;;3.63;100.00;101193.13;4854934;28;20079;-65
2022/11/20 11:06:07;;;;;;;14.35;7.07;;;;;;;3.63;99.72;101192.25;4854830;28;20105;-65
2022/11/20 11:11:58;;;;;;;20.88;9.27;;;;;;;3.67;100.00;101179.47;4939100;28;20048;-64
2022/11/20 11:14:48;;;;;;;23.88;10.35;;;;;;;3.71;99.80;101184.72;4903423;28;20040;-64
2022/11/20 11:18:00;;;;;;;17.10;8.57;;;;;;;3.76;99.91;101191.75;4920657;28;20040;-64
2022/11/20 11:20:36;;;;;;;;;;;;;;;3.76;99.48;101176.22;4948260;28;20072;-63
2022/11/20 11:23:39;;;;;;;17.88;7.78;;;;;;;3.77;99.05;101175.41;4918764;28;19929;-65
2022/11/20 11:26:27;;;;;;;18.33;6.20;;;;;;;3.70;99.24;101160.56;4871569;28;20103;-65
2022/11/20 11:29:10;;;;;;;13.85;6.72;;;;;;;3.72;98.95;101169.25;4915577;28;20059;-64
2022/11/20 11:31:53;;;;;;;20.45;8.90;;;;;;;3.69;98.71;101171.72;4934226;28;20048;-64
2022/11/20 11:35:05;;;;;;;18.08;8.35;;;;;;;3.70;98.83;101158.00;4916924;28;20044;-64
2022/11/20 11:38:08;;;;;;;16.50;7.35;;;;;;;3.68;98.57;101146.72;4892967;28;20478;-63
2022/11/20 11:41:03;;;;;;;17.88;7.22;;;;;;;3.66;98.37;101156.16;4873223;28;20402;-65
2022/11/20 11:47:20;;;;;;;23.10;8.55;;;;;;;3.77;98.61;101159.00;4926778;28;20141;-63
2022/11/20 11:50:26;;;;;;;20.58;7.55;;;;;;;3.77;98.71;101153.84;4944707;28;20099;-62
2022/11/20 11:53:18;;;;;;;25.58;8.32;;;;;;;3.75;98.28;101151.22;4910157;28;20044;-65
2022/11/20 11:56:07;;;;;;;13.63;7.05;;;;;;;3.77;98.97;101148.66;4931343;28;20107;-66
2022/11/20 11:58:59;;;;;;;15.15;7.07;;;;;;;3.80;99.81;101138.44;4923815;28;20067;-64
2022/11/20 12:01:53;;;;;;;21.80;9.38;;;;;;;3.79;99.42;101150.44;4923863;28;20115;-65
2022/11/20 12:04:48;;;;;;;27.52;9.65;;;;;;;3.67;99.83;101126.91;4916358;28;20045;-65
2022/11/20 12:08:01;;;;;;;22.35;8.85;;;;;;;3.41;99.98;101097.78;4914283;28;20075;-63
2022/11/20 12:11:02;;;;;;;23.67;10.93;;;;;;;3.66;100.00;101143.22;4898324;28;20059;-64
2022/11/20 12:13:58;;;;;;;23.33;8.73;;;;;;;3.63;100.00;101138.00;4900020;28;20109;-65
2022/11/20 12:16:43;;;;;;;25.30;12.20;;;;;;;3.62;100.00;101133.63;4933377;28;20065;-65
2022/11/20 12:19:39;;;;;;;25.08;10.43;;;;;;;3.64;100.00;101137.13;4911539;28;20059;-64
2022/11/20 12:22:38;;;;;;;23.55;8.68;;;;;;;3.61;100.00;101131.91;4917498;28;20036;-65
2022/11/20 12:25:29;;;;;;;20.88;7.60;;;;;;;3.57;100.00;101130.06;4857675;28;20424;-63
2022/11/20 12:29:05;;;;;;;17.23;8.35;;;;;;;3.54;100.00;101127.41;4901702;28;20048;-63
2022/11/20 12:32:35;;;;;;;15.55;6.30;;;;;;;3.49;100.00;101126.41;4917978;28;20462;-64
2022/11/20 12:35:44;;;;;;;24.67;9.40;;;;;;;3.51;100.00;101119.56;4864033;28;20048;-64
2022/11/20 12:38:58;;;;;;;18.60;8.73;;;;;;;3.54;100.00;101114.47;4891811;28;20323;-64
2022/11/20 12:45:39;;;;;;;24.13;8.93;;;;;;;3.51;100.00;101099.78;4904732;28;20108;-63
2022/11/20 12:49:03;;;;;;;17.00;7.90;;;;;;;3.53;100.00;101107.56;4909072;28;20048;-64
2022/11/20 12:52:00;;;;;;;15.15;7.20;;;;;;;3.54;100.00;101098.97;4898056;28;20458;-65
2022/11/20 12:55:22;;;;;;;16.13;6.85;;;;;;;3.55;100.00;101095.56;4887683;28;20041;-65
2022/11/20 12:58:22;;;;;;;13.95;7.05;;;;;;;3.55;100.00;101100.75;4915344;28;20386;-64
2022/11/20 13:01:39;;;;;;;14.70;6.78;;;;;;;3.52;100.00;101087.72;4900757;28;20052;-64
2022/11/20 13:04:35;;;;;;;13.48;6.15;;;;;;;3.48;100.00;101083.34;4893907;28;21101;-65
2022/11/20 13:07:22;;;;;;;16.60;6.22;;;;;;;3.46;100.00;101091.91;4876894;28;21039;-63
2022/11/20 13:13:26;;;;;;;22.42;8.10;;;;;;;3.41;100.00;101078.00;4886456;28;20044;-64
2022/11/20 13:16:21;;;;;;;25.75;9.02;;;;;;;3.42;100.00;101084.94;4913652;28;20059;-64
2022/11/20 13:19:20;;;;;;;29.70;13.75;;;;;;;3.27;100.00;101058.69;4911535;28;20219;-65
2022/11/20 13:22:10;;;;;;;21.10;11.55;;;;;;;3.15;100.00;101058.38;4894299;28;20062;-66
2022/11/20 13:25:06;;;;;;;26.63;11.52;;;;;;;3.14;100.00;101072.09;4911577;28;20225;-65
2022/11/20 13:28:00;;;;;;;24.80;11.95;;;;;;;3.11;100.00;101061.69;4898536;28;20059;-65
2022/11/20 13:30:55;;;;;;;19.33;9.60;;;;;;;3.21;100.00;101068.84;4905398;28;20037;-64
2022/11/20 13:33:55;;;;;;;20.40;9.95;;;;;;;3.27;100.00;101079.38;4901107;28;20049;-67
2022/11/20 13:36:55;;;;;;;19.23;9.45;;;;;;;3.25;100.00;101073.28;4934411;28;20082;-64
2022/11/20 13:39:55;;;;;;;18.80;9.00;;;;;;;3.19;100.00;101066.22;4931438;28;20040;-67
2022/11/20 13:42:51;;;;;;;21.95;10.82;;;;;;;3.15;100.00;101059.25;4922710;28;20057;-64
2022/11/20 13:45:37;;;;;;;26.50;10.88;;;;;;;3.11;100.00;101051.38;4878671;28;20072;-64
2022/11/20 13:49:01;;;;;;;23.45;9.68;;;;;;;3.14;100.00;101048.84;4927570;28;20047;-61
2022/11/20 13:51:58;;;;;;;18.77;7.60;;;;;;;3.15;100.00;101023.09;4895301;28;20050;-65
2022/11/20 13:55:13;;;;;;;15.60;6.35;;;;;;;3.37;100.00;101050.34;4856199;28;20053;-63
2022/11/20 13:58:16;;;;;;;14.75;7.47;;;;;;;3.45;100.00;101043.66;4944180;28;20084;-63
2022/11/20 14:03:56;;;;;;;17.65;6.93;;;;;;;3.52;100.00;101044.69;4861109;28;20077;-64
2022/11/20 14:07:07;;;;;;;19.58;7.93;;;;;;;3.49;100.00;101048.91;4835802;28;20038;-63
2022/11/20 14:09:54;;;;;;;18.95;7.43;;;;;;;3.42;100.00;101043.59;4864241;28;20042;-63
2022/11/20 14:12:40;;;;;;;18.27;6.97;;;;;;;3.11;100.00;100989.41;4873395;28;20049;-65
2022/11/20 14:15:35;;;;;;;16.63;6.45;;;;;;;3.27;100.00;101012.22;4853613;28;20039;-64
2022/11/20 14:18:37;;;;;;;15.85;5.50;;;;;;;3.44;100.00;101013.50;4846474;28;20231;-64
2022/11/20 14:24:28;;;;;;;12.48;5.70;;;;;;;3.78;100.00;100996.19;4868963;28;20312;-63
2022/11/20 14:27:15;;;;;;;13.85;5.45;;;;;;;3.85;100.00;100992.91;4824720;28;22200;-62
2022/11/20 14:33:07;;;;;;;11.57;5.22;;;;;;;3.93;100.00;100985.34;4794609;28;20087;-63
2022/11/20 14:35:50;;;;;;;9.38;5.30;;;;;;;4.00;100.00;100996.69;4817168;28;20082;-63